sensor_id;sensor_type;location;lat;lon;timestamp;pressure;altitude;pressure_sealevel;temperature;humidity
64711;BME280;51139;45.626;6.850;2023-02-10T00:01:20;82900.13;;;-8.49;51.42
64711;BME280;51139;45.626;6.850;2023-02-10T00:03:46;82904.94;;;-8.29;51.09
64711;BME280;51139;45.626;6.850;2023-02-10T00:06:12;82901.06;;;-8.33;51.49
64711;BME280;51139;45.626;6.850;2023-02-10T00:08:38;82906.84;;;-8.42;51.13
64711;BME280;51139;45.626;6.850;2023-02-10T00:11:09;82904.97;;;-8.19;51.06
64711;BME280;51139;45.626;6.850;2023-02-10T00:13:38;82911.09;;;-8.26;50.86
64711;BME280;51139;45.626;6.850;2023-02-10T00:16:06;82919.34;;;-8.00;51.39
64711;BME280;51139;45.626;6.850;2023-02-10T00:18:32;82904.69;;;-7.49;50.27
64711;BME280;51139;45.626;6.850;2023-02-10T00:21:12;82908.22;;;-7.97;51.30
64711;BME280;51139;45.626;6.850;2023-02-10T00:23:38;82907.50;;;-8.29;51.73
64711;BME280;51139;45.626;6.850;2023-02-10T00:26:04;82909.78;;;-8.31;51.82
64711;BME280;51139;45.626;6.850;2023-02-10T00:28:31;82912.94;;;-8.27;52.58
64711;BME280;51139;45.626;6.850;2023-02-10T00:30:57;82914.94;;;-8.31;52.50
64711;BME280;51139;45.626;6.850;2023-02-10T00:33:22;82921.84;;;-8.41;53.08
64711;BME280;51139;45.626;6.850;2023-02-10T00:35:47;82923.03;;;-8.64;53.58
64711;BME280;51139;45.626;6.850;2023-02-10T00:38:13;82923.63;;;-8.60;53.71
64711;BME280;51139;45.626;6.850;2023-02-10T00:40:38;82923.59;;;-8.38;53.50
64711;BME280;51139;45.626;6.850;2023-02-10T00:43:03;82935.59;;;-8.35;53.62
64711;BME280;51139;45.626;6.850;2023-02-10T00:45:29;82929.06;;;-8.26;53.18
64711;BME280;51139;45.626;6.850;2023-02-10T00:47:54;82941.03;;;-8.32;52.81
64711;BME280;51139;45.626;6.850;2023-02-10T00:50:19;82934.22;;;-8.26;52.55
64711;BME280;51139;45.626;6.850;2023-02-10T00:52:45;82935.00;;;-8.39;53.10
64711;BME280;51139;45.626;6.850;2023-02-10T00:55:10;82931.53;;;-8.45;52.40
64711;BME280;51139;45.626;6.850;2023-02-10T00:57:36;82929.97;;;-8.42;53.13
64711;BME280;51139;45.626;6.850;2023-02-10T01:00:02;82930.81;;;-8.23;53.07
64711;BME280;51139;45.626;6.850;2023-02-10T01:02:27;82937.16;;;-8.37;53.20
64711;BME280;51139;45.626;6.850;2023-02-10T01:04:53;82924.03;;;-8.61;52.93
64711;BME280;51139;45.626;6.850;2023-02-10T01:07:18;82924.50;;;-8.54;52.72
64711;BME280;51139;45.626;6.850;2023-02-10T01:09:44;82923.50;;;-8.56;52.50
64711;BME280;51139;45.626;6.850;2023-02-10T01:12:09;82931.50;;;-8.76;53.46
64711;BME280;51139;45.626;6.850;2023-02-10T01:14:34;82919.00;;;-8.87;53.36
64711;BME280;51139;45.626;6.850;2023-02-10T01:17:00;82929.50;;;-8.95;53.82
64711;BME280;51139;45.626;6.850;2023-02-10T01:19:25;82919.44;;;-8.89;53.83
64711;BME280;51139;45.626;6.850;2023-02-10T01:21:50;82921.13;;;-8.73;52.98
64711;BME280;51139;45.626;6.850;2023-02-10T01:24:16;82918.28;;;-8.88;53.18
64711;BME280;51139;45.626;6.850;2023-02-10T01:26:41;82915.66;;;-8.97;53.57
64711;BME280;51139;45.626;6.850;2023-02-10T01:29:07;82910.72;;;-8.69;52.46
64711;BME280;51139;45.626;6.850;2023-02-10T01:31:32;82910.25;;;-8.45;51.84
64711;BME280;51139;45.626;6.850;2023-02-10T01:33:57;82916.91;;;-8.35;49.59
64711;BME280;51139;45.626;6.850;2023-02-10T01:36:24;82902.56;;;-8.14;49.05
64711;BME280;51139;45.626;6.850;2023-02-10T01:38:51;82903.66;;;-7.93;48.52
64711;BME280;51139;45.626;6.850;2023-02-10T01:41:19;82902.38;;;-8.29;48.44
64711;BME280;51139;45.626;6.850;2023-02-10T01:44:06;82892.47;;;-8.62;49.80
64711;BME280;51139;45.626;6.850;2023-02-10T01:46:51;82889.97;;;-8.97;51.94
64711;BME280;51139;45.626;6.850;2023-02-10T01:49:19;82892.38;;;-8.81;52.29
64711;BME280;51139;45.626;6.850;2023-02-10T01:54:19;82886.88;;;-8.70;51.79
64711;BME280;51139;45.626;6.850;2023-02-10T01:56:47;82877.66;;;-8.58;52.23
64711;BME280;51139;45.626;6.850;2023-02-10T01:59:13;82880.97;;;-8.57;51.85
64711;BME280;51139;45.626;6.850;2023-02-10T02:01:39;82880.66;;;-8.59;51.20
64711;BME280;51139;45.626;6.850;2023-02-10T02:04:05;82878.44;;;-8.70;52.24
64711;BME280;51139;45.626;6.850;2023-02-10T02:06:32;82878.16;;;-8.72;52.04
64711;BME280;51139;45.626;6.850;2023-02-10T02:08:58;82871.34;;;-8.88;52.36
64711;BME280;51139;45.626;6.850;2023-02-10T02:11:49;82874.69;;;-8.78;52.54
64711;BME280;51139;45.626;6.850;2023-02-10T02:17:05;82866.44;;;-8.73;52.61
64711;BME280;51139;45.626;6.850;2023-02-10T02:25:05;82853.34;;;-8.66;53.05
64711;BME280;51139;45.626;6.850;2023-02-10T02:32:57;82853.69;;;-8.55;52.26
64711;BME280;51139;45.626;6.850;2023-02-10T02:35:28;82849.84;;;-8.18;52.22
64711;BME280;51139;45.626;6.850;2023-02-10T02:37:55;82850.09;;;-7.94;51.14
64711;BME280;51139;45.626;6.850;2023-02-10T02:40:21;82849.13;;;-7.69;50.42
64711;BME280;51139;45.626;6.850;2023-02-10T02:42:46;82852.78;;;-7.38;49.91
64711;BME280;51139;45.626;6.850;2023-02-10T02:45:20;82846.38;;;-7.34;49.45
64711;BME280;51139;45.626;6.850;2023-02-10T02:50:38;82837.22;;;-7.25;48.19
64711;BME280;51139;45.626;6.850;2023-02-10T03:04:17;82839.03;;;-7.44;48.34
64711;BME280;51139;45.626;6.850;2023-02-10T03:06:43;82840.94;;;-7.26;48.06
64711;BME280;51139;45.626;6.850;2023-02-10T03:09:08;82840.44;;;-7.62;48.94
64711;BME280;51139;45.626;6.850;2023-02-10T03:11:34;82847.59;;;-8.07;50.14
64711;BME280;51139;45.626;6.850;2023-02-10T03:14:00;82848.53;;;-8.23;49.23
64711;BME280;51139;45.626;6.850;2023-02-10T03:16:26;82844.00;;;-8.10;48.35
64711;BME280;51139;45.626;6.850;2023-02-10T03:18:51;82850.56;;;-7.77;47.98
64711;BME280;51139;45.626;6.850;2023-02-10T03:21:16;82849.81;;;-7.87;48.57
64711;BME280;51139;45.626;6.850;2023-02-10T03:23:42;82849.41;;;-8.17;49.13
64711;BME280;51139;45.626;6.850;2023-02-10T03:26:07;82851.25;;;-8.27;49.59
64711;BME280;51139;45.626;6.850;2023-02-10T03:28:33;82848.69;;;-8.27;49.26
64711;BME280;51139;45.626;6.850;2023-02-10T03:31:02;82853.34;;;-8.35;48.90
64711;BME280;51139;45.626;6.850;2023-02-10T03:33:28;82854.66;;;-8.30;49.70
64711;BME280;51139;45.626;6.850;2023-02-10T03:35:53;82844.88;;;-8.44;49.80
64711;BME280;51139;45.626;6.850;2023-02-10T03:38:18;82835.38;;;-8.25;49.97
64711;BME280;51139;45.626;6.850;2023-02-10T03:40:44;82835.53;;;-8.29;49.82
64711;BME280;51139;45.626;6.850;2023-02-10T03:43:13;82838.81;;;-8.28;49.75
64711;BME280;51139;45.626;6.850;2023-02-10T03:45:38;82832.84;;;-8.47;49.97
64711;BME280;51139;45.626;6.850;2023-02-10T03:48:04;82832.59;;;-8.50;50.18
64711;BME280;51139;45.626;6.850;2023-02-10T03:50:30;82829.16;;;-8.46;50.58
64711;BME280;51139;45.626;6.850;2023-02-10T03:52:55;82827.06;;;-8.39;50.40
64711;BME280;51139;45.626;6.850;2023-02-10T03:55:20;82835.19;;;-8.40;50.00
64711;BME280;51139;45.626;6.850;2023-02-10T03:57:46;82833.31;;;-8.49;50.21
64711;BME280;51139;45.626;6.850;2023-02-10T04:00:13;82836.88;;;-8.46;50.30
64711;BME280;51139;45.626;6.850;2023-02-10T04:02:38;82844.69;;;-8.28;48.79
64711;BME280;51139;45.626;6.850;2023-02-10T04:05:05;82840.41;;;-8.22;49.00
64711;BME280;51139;45.626;6.850;2023-02-10T04:07:30;82846.31;;;-8.02;47.78
64711;BME280;51139;45.626;6.850;2023-02-10T04:09:55;82844.19;;;-8.04;47.61
64711;BME280;51139;45.626;6.850;2023-02-10T04:12:21;82853.84;;;-7.77;47.59
64711;BME280;51139;45.626;6.850;2023-02-10T04:14:46;82855.41;;;-8.20;47.62
64711;BME280;51139;45.626;6.850;2023-02-10T04:17:12;82856.22;;;-8.32;47.69
64711;BME280;51139;45.626;6.850;2023-02-10T04:19:37;82857.50;;;-8.37;47.42
64711;BME280;51139;45.626;6.850;2023-02-10T04:22:03;82852.34;;;-8.37;47.69
64711;BME280;51139;45.626;6.850;2023-02-10T04:24:28;82859.13;;;-8.53;48.49
64711;BME280;51139;45.626;6.850;2023-02-10T04:26:53;82850.44;;;-8.77;47.38
64711;BME280;51139;45.626;6.850;2023-02-10T04:29:19;82861.41;;;-8.55;47.21
64711;BME280;51139;45.626;6.850;2023-02-10T04:31:44;82863.69;;;-8.57;47.46
64711;BME280;51139;45.626;6.850;2023-02-10T04:34:10;82869.53;;;-8.56;47.10
64711;BME280;51139;45.626;6.850;2023-02-10T04:36:35;82870.13;;;-8.52;47.63
64711;BME280;51139;45.626;6.850;2023-02-10T04:39:01;82868.47;;;-8.37;48.03
64711;BME280;51139;45.626;6.850;2023-02-10T04:41:26;82870.69;;;-8.26;48.47
64711;BME280;51139;45.626;6.850;2023-02-10T04:43:52;82868.56;;;-8.50;47.64
64711;BME280;51139;45.626;6.850;2023-02-10T04:46:17;82874.88;;;-8.41;48.33
64711;BME280;51139;45.626;6.850;2023-02-10T04:48:42;82869.50;;;-8.34;48.27
64711;BME280;51139;45.626;6.850;2023-02-10T04:51:09;82867.69;;;-8.46;47.42
64711;BME280;51139;45.626;6.850;2023-02-10T04:53:35;82867.28;;;-8.54;47.78
64711;BME280;51139;45.626;6.850;2023-02-10T04:56:01;82856.66;;;-8.66;47.28
64711;BME280;51139;45.626;6.850;2023-02-10T04:58:26;82866.97;;;-8.56;47.39
64711;BME280;51139;45.626;6.850;2023-02-10T05:00:54;82866.84;;;-8.53;46.39
64711;BME280;51139;45.626;6.850;2023-02-10T05:03:20;82859.13;;;-8.53;46.76
64711;BME280;51139;45.626;6.850;2023-02-10T05:05:46;82868.28;;;-8.42;46.48
64711;BME280;51139;45.626;6.850;2023-02-10T05:08:11;82860.56;;;-8.52;46.48
64711;BME280;51139;45.626;6.850;2023-02-10T05:10:37;82859.38;;;-8.60;46.95
64711;BME280;51139;45.626;6.850;2023-02-10T05:13:02;82856.25;;;-8.55;44.68
64711;BME280;51139;45.626;6.850;2023-02-10T05:15:27;82857.06;;;-8.67;45.42
64711;BME280;51139;45.626;6.850;2023-02-10T05:17:53;82857.94;;;-8.61;45.75
64711;BME280;51139;45.626;6.850;2023-02-10T05:20:18;82860.22;;;-8.31;45.40
64711;BME280;51139;45.626;6.850;2023-02-10T05:22:44;82860.88;;;-8.40;44.78
64711;BME280;51139;45.626;6.850;2023-02-10T05:25:09;82859.63;;;-8.36;45.17
64711;BME280;51139;45.626;6.850;2023-02-10T05:27:35;82861.78;;;-8.34;44.16
64711;BME280;51139;45.626;6.850;2023-02-10T05:30:01;82856.56;;;-8.53;43.28
64711;BME280;51139;45.626;6.850;2023-02-10T05:32:27;82860.44;;;-8.48;43.35
64711;BME280;51139;45.626;6.850;2023-02-10T05:34:53;82864.50;;;-8.28;43.30
64711;BME280;51139;45.626;6.850;2023-02-10T05:37:18;82871.00;;;-8.14;43.39
64711;BME280;51139;45.626;6.850;2023-02-10T05:39:43;82861.13;;;-8.16;43.37
64711;BME280;51139;45.626;6.850;2023-02-10T05:42:09;82867.16;;;-8.10;43.29
64711;BME280;51139;45.626;6.850;2023-02-10T05:44:34;82866.97;;;-8.25;43.19
64711;BME280;51139;45.626;6.850;2023-02-10T05:46:59;82859.16;;;-8.12;42.62
64711;BME280;51139;45.626;6.850;2023-02-10T05:49:25;82871.72;;;-8.14;41.71
64711;BME280;51139;45.626;6.850;2023-02-10T05:51:50;82866.03;;;-8.40;41.12
64711;BME280;51139;45.626;6.850;2023-02-10T05:54:16;82870.50;;;-8.31;41.62
64711;BME280;51139;45.626;6.850;2023-02-10T05:56:41;82864.44;;;-8.47;41.78
64711;BME280;51139;45.626;6.850;2023-02-10T05:59:07;82870.25;;;-8.24;41.72
64711;BME280;51139;45.626;6.850;2023-02-10T06:01:32;82874.31;;;-8.04;40.71
64711;BME280;51139;45.626;6.850;2023-02-10T06:03:58;82874.03;;;-8.07;40.43
64711;BME280;51139;45.626;6.850;2023-02-10T06:06:23;82878.50;;;-7.98;40.43
64711;BME280;51139;45.626;6.850;2023-02-10T06:08:49;82876.50;;;-7.94;40.53
64711;BME280;51139;45.626;6.850;2023-02-10T06:11:14;82885.00;;;-8.15;41.33
64711;BME280;51139;45.626;6.850;2023-02-10T06:13:40;82878.50;;;-8.29;40.94
64711;BME280;51139;45.626;6.850;2023-02-10T06:16:07;82882.97;;;-8.21;41.34
64711;BME280;51139;45.626;6.850;2023-02-10T06:18:32;82882.50;;;-8.28;42.30
64711;BME280;51139;45.626;6.850;2023-02-10T06:20:59;82884.72;;;-8.17;41.30
64711;BME280;51139;45.626;6.850;2023-02-10T06:23:24;82881.84;;;-8.19;41.17
64711;BME280;51139;45.626;6.850;2023-02-10T06:25:50;82881.13;;;-8.20;41.01
64711;BME280;51139;45.626;6.850;2023-02-10T06:28:21;82892.56;;;-8.12;40.40
64711;BME280;51139;45.626;6.850;2023-02-10T06:30:47;82887.34;;;-7.99;39.33
64711;BME280;51139;45.626;6.850;2023-02-10T06:33:12;82890.31;;;-8.10;39.15
64711;BME280;51139;45.626;6.850;2023-02-10T06:35:37;82895.75;;;-8.08;38.90
64711;BME280;51139;45.626;6.850;2023-02-10T06:38:03;82893.38;;;-7.93;37.82
64711;BME280;51139;45.626;6.850;2023-02-10T06:40:28;82895.75;;;-7.67;36.90
64711;BME280;51139;45.626;6.850;2023-02-10T06:42:53;82893.72;;;-7.72;37.03
64711;BME280;51139;45.626;6.850;2023-02-10T06:45:19;82890.78;;;-7.61;36.14
64711;BME280;51139;45.626;6.850;2023-02-10T06:47:44;82897.13;;;-7.84;37.70
64711;BME280;51139;45.626;6.850;2023-02-10T06:50:09;82888.59;;;-7.72;37.51
64711;BME280;51139;45.626;6.850;2023-02-10T06:52:37;82900.03;;;-7.64;38.08
64711;BME280;51139;45.626;6.850;2023-02-10T06:55:04;82902.69;;;-7.45;38.14
64711;BME280;51139;45.626;6.850;2023-02-10T06:57:30;82898.28;;;-7.26;36.32
64711;BME280;51139;45.626;6.850;2023-02-10T06:59:55;82902.31;;;-7.15;36.29
64711;BME280;51139;45.626;6.850;2023-02-10T07:02:21;82898.34;;;-6.89;35.79
64711;BME280;51139;45.626;6.850;2023-02-10T07:04:47;82895.31;;;-7.06;33.99
64711;BME280;51139;45.626;6.850;2023-02-10T07:07:12;82903.34;;;-6.94;34.72
64711;BME280;51139;45.626;6.850;2023-02-10T07:09:38;82908.22;;;-6.78;34.40
64711;BME280;51139;45.626;6.850;2023-02-10T07:12:03;82901.59;;;-7.07;36.43
64711;BME280;51139;45.626;6.850;2023-02-10T07:14:29;82909.16;;;-7.31;37.91
64711;BME280;51139;45.626;6.850;2023-02-10T07:16:54;82906.47;;;-7.09;36.21
64711;BME280;51139;45.626;6.850;2023-02-10T07:19:20;82912.88;;;-7.13;35.25
64711;BME280;51139;45.626;6.850;2023-02-10T07:21:45;82908.88;;;-7.24;35.69
64711;BME280;51139;45.626;6.850;2023-02-10T07:24:10;82910.84;;;-7.37;37.13
64711;BME280;51139;45.626;6.850;2023-02-10T07:26:36;82908.38;;;-6.91;35.25
64711;BME280;51139;45.626;6.850;2023-02-10T07:29:02;82912.78;;;-6.63;34.61
64711;BME280;51139;45.626;6.850;2023-02-10T07:31:27;82916.09;;;-6.72;36.04
64711;BME280;51139;45.626;6.850;2023-02-10T07:33:52;82916.38;;;-6.61;35.80
64711;BME280;51139;45.626;6.850;2023-02-10T07:36:18;82910.34;;;-6.11;34.46
64711;BME280;51139;45.626;6.850;2023-02-10T07:38:43;82910.91;;;-5.64;34.76
64711;BME280;51139;45.626;6.850;2023-02-10T07:41:09;82913.22;;;-4.74;32.03
64711;BME280;51139;45.626;6.850;2023-02-10T07:43:34;82917.25;;;-5.07;32.56
64711;BME280;51139;45.626;6.850;2023-02-10T07:46:00;82914.81;;;-5.35;34.52
64711;BME280;51139;45.626;6.850;2023-02-10T07:48:26;82912.06;;;-4.73;34.28
64711;BME280;51139;45.626;6.850;2023-02-10T07:50:52;82916.13;;;-4.18;33.16
64711;BME280;51139;45.626;6.850;2023-02-10T07:53:19;82912.25;;;-3.53;32.33
64711;BME280;51139;45.626;6.850;2023-02-10T07:55:44;82918.78;;;-3.58;32.47
64711;BME280;51139;45.626;6.850;2023-02-10T07:58:10;82915.19;;;-3.60;31.89
64711;BME280;51139;45.626;6.850;2023-02-10T08:00:35;82922.28;;;-3.10;31.37
64711;BME280;51139;45.626;6.850;2023-02-10T08:03:01;82920.59;;;-2.98;32.15
64711;BME280;51139;45.626;6.850;2023-02-10T08:05:27;82920.22;;;-2.14;28.68
64711;BME280;51139;45.626;6.850;2023-02-10T08:07:54;82913.56;;;-1.47;28.68
64711;BME280;51139;45.626;6.850;2023-02-10T08:10:20;82925.00;;;-1.86;29.63
64711;BME280;51139;45.626;6.850;2023-02-10T08:12:45;82924.78;;;-1.82;29.10
64711;BME280;51139;45.626;6.850;2023-02-10T08:15:11;82919.41;;;-1.52;26.96
64711;BME280;51139;45.626;6.850;2023-02-10T08:17:38;82919.72;;;0.07;25.89
64711;BME280;51139;45.626;6.850;2023-02-10T08:20:05;82916.84;;;-0.01;26.67
64711;BME280;51139;45.626;6.850;2023-02-10T08:22:30;82919.25;;;1.37;24.57
64711;BME280;51139;45.626;6.850;2023-02-10T08:24:56;82924.94;;;1.53;25.58
64711;BME280;51139;45.626;6.850;2023-02-10T08:27:21;82929.19;;;0.87;25.01
64711;BME280;51139;45.626;6.850;2023-02-10T08:29:47;82928.41;;;1.95;26.08
64711;BME280;51139;45.626;6.850;2023-02-10T08:32:12;82936.28;;;0.81;25.04
64711;BME280;51139;45.626;6.850;2023-02-10T08:34:47;82933.59;;;-0.19;26.71
64711;BME280;51139;45.626;6.850;2023-02-10T08:37:12;82929.84;;;0.60;25.73
64711;BME280;51139;45.626;6.850;2023-02-10T08:39:38;82937.47;;;0.80;25.76
64711;BME280;51139;45.626;6.850;2023-02-10T08:42:03;82940.09;;;1.83;26.42
64711;BME280;51139;45.626;6.850;2023-02-10T08:44:29;82939.69;;;2.97;22.70
64711;BME280;51139;45.626;6.850;2023-02-10T08:46:54;82936.56;;;3.76;22.07
64711;BME280;51139;45.626;6.850;2023-02-10T08:49:20;82934.88;;;3.79;23.05
64711;BME280;51139;45.626;6.850;2023-02-10T08:51:47;82932.53;;;2.50;20.54
64711;BME280;51139;45.626;6.850;2023-02-10T08:54:12;82936.88;;;2.30;20.88
64711;BME280;51139;45.626;6.850;2023-02-10T08:56:38;82933.69;;;3.08;21.35
64711;BME280;51139;45.626;6.850;2023-02-10T08:59:03;82943.06;;;3.33;21.74
64711;BME280;51139;45.626;6.850;2023-02-10T09:01:29;82938.94;;;3.74;21.87
64711;BME280;51139;45.626;6.850;2023-02-10T09:03:55;82943.34;;;4.90;21.47
64711;BME280;51139;45.626;6.850;2023-02-10T09:06:27;82941.88;;;5.66;22.12
64711;BME280;51139;45.626;6.850;2023-02-10T09:08:53;82946.13;;;5.17;22.72
64711;BME280;51139;45.626;6.850;2023-02-10T09:11:20;82941.53;;;6.08;19.11
64711;BME280;51139;45.626;6.850;2023-02-10T09:13:49;82940.41;;;5.51;19.68
64711;BME280;51139;45.626;6.850;2023-02-10T09:16:15;82948.97;;;6.50;18.36
64711;BME280;51139;45.626;6.850;2023-02-10T09:18:40;82951.75;;;6.11;19.57
64711;BME280;51139;45.626;6.850;2023-02-10T09:21:06;82953.22;;;5.22;20.03
64711;BME280;51139;45.626;6.850;2023-02-10T09:23:31;82950.41;;;6.51;19.64
64711;BME280;51139;45.626;6.850;2023-02-10T09:25:58;82959.13;;;5.80;20.25
64711;BME280;51139;45.626;6.850;2023-02-10T09:28:25;82954.25;;;4.50;23.04
64711;BME280;51139;45.626;6.850;2023-02-10T09:30:51;82960.28;;;6.31;20.49
64711;BME280;51139;45.626;6.850;2023-02-10T09:33:17;82961.22;;;4.92;21.98
64711;BME280;51139;45.626;6.850;2023-02-10T09:35:43;82967.19;;;4.18;22.36
64711;BME280;51139;45.626;6.850;2023-02-10T09:38:09;82968.13;;;5.14;23.50
64711;BME280;51139;45.626;6.850;2023-02-10T09:46:41;82968.31;;;7.47;20.23
64711;BME280;51139;45.626;6.850;2023-02-10T09:52:32;82979.78;;;8.40;17.69
64711;BME280;51139;45.626;6.850;2023-02-10T09:55:11;82976.09;;;8.00;21.75
64711;BME280;51139;45.626;6.850;2023-02-10T09:57:41;82979.50;;;8.30;22.21
64711;BME280;51139;45.626;6.850;2023-02-10T10:00:33;82976.13;;;6.58;17.58
64711;BME280;51139;45.626;6.850;2023-02-10T10:03:03;82980.66;;;6.44;20.37
64711;BME280;51139;45.626;6.850;2023-02-10T10:05:36;82985.16;;;7.43;19.92
64711;BME280;51139;45.626;6.850;2023-02-10T10:08:07;82982.31;;;7.41;20.94
64711;BME280;51139;45.626;6.850;2023-02-10T10:10:41;82991.63;;;5.96;24.35
64711;BME280;51139;45.626;6.850;2023-02-10T10:13:14;82996.28;;;4.70;23.76
64711;BME280;51139;45.626;6.850;2023-02-10T10:15:47;82988.13;;;5.17;23.96
64711;BME280;51139;45.626;6.850;2023-02-10T10:18:31;82990.53;;;5.15;24.43
64711;BME280;51139;45.626;6.850;2023-02-10T10:21:40;82991.03;;;3.89;26.79
64711;BME280;51139;45.626;6.850;2023-02-10T10:29:52;82987.22;;;3.12;26.11
64711;BME280;51139;45.626;6.850;2023-02-10T10:32:32;82988.91;;;2.45;24.96
64711;BME280;51139;45.626;6.850;2023-02-10T10:35:01;82989.72;;;1.88;25.94
64711;BME280;51139;45.626;6.850;2023-02-10T10:37:27;82988.28;;;2.04;23.54
64711;BME280;51139;45.626;6.850;2023-02-10T10:40:00;82993.22;;;2.37;25.07
64711;BME280;51139;45.626;6.850;2023-02-10T10:42:47;82990.25;;;2.74;25.50
64711;BME280;51139;45.626;6.850;2023-02-10T10:45:19;82988.38;;;2.63;25.31
64711;BME280;51139;45.626;6.850;2023-02-10T10:48:06;82988.13;;;3.20;25.83
64711;BME280;51139;45.626;6.850;2023-02-10T10:50:33;82988.34;;;3.95;24.22
64711;BME280;51139;45.626;6.850;2023-02-10T10:53:02;82983.28;;;3.72;23.57
64711;BME280;51139;45.626;6.850;2023-02-10T10:55:37;82984.34;;;3.58;24.67
64711;BME280;51139;45.626;6.850;2023-02-10T10:58:17;82971.28;;;2.51;26.32
64711;BME280;51139;45.626;6.850;2023-02-10T11:00:51;82987.94;;;3.13;30.59
64711;BME280;51139;45.626;6.850;2023-02-10T11:03:17;82993.69;;;3.84;30.14
64711;BME280;51139;45.626;6.850;2023-02-10T11:05:44;82979.69;;;3.39;27.04
64711;BME280;51139;45.626;6.850;2023-02-10T11:08:30;82984.13;;;2.55;29.57
64711;BME280;51139;45.626;6.850;2023-02-10T11:11:01;82984.38;;;3.10;28.99
64711;BME280;51139;45.626;6.850;2023-02-10T11:13:29;82991.69;;;2.70;28.75
64711;BME280;51139;45.626;6.850;2023-02-10T11:18:28;82990.16;;;3.75;29.92
64711;BME280;51139;45.626;6.850;2023-02-10T11:21:00;82984.59;;;3.90;30.38
64711;BME280;51139;45.626;6.850;2023-02-10T11:23:27;82975.25;;;3.64;29.48
64711;BME280;51139;45.626;6.850;2023-02-10T11:28:26;82980.97;;;3.93;30.92
64711;BME280;51139;45.626;6.850;2023-02-10T11:33:55;82980.19;;;4.04;27.42
64711;BME280;51139;45.626;6.850;2023-02-10T11:36:37;82980.44;;;4.31;28.25
64711;BME280;51139;45.626;6.850;2023-02-10T11:39:18;82990.28;;;3.94;27.29
64711;BME280;51139;45.626;6.850;2023-02-10T11:41:46;82986.59;;;4.34;27.69
64711;BME280;51139;45.626;6.850;2023-02-10T11:44:29;82981.53;;;4.42;26.28
64711;BME280;51139;45.626;6.850;2023-02-10T11:47:04;82995.25;;;2.67;27.55
64711;BME280;51139;45.626;6.850;2023-02-10T11:49:31;82993.88;;;3.13;28.50
64711;BME280;51139;45.626;6.850;2023-02-10T11:52:01;82997.72;;;4.15;26.25
64711;BME280;51139;45.626;6.850;2023-02-10T11:54:27;82999.88;;;3.86;29.21
64711;BME280;51139;45.626;6.850;2023-02-10T11:57:03;82993.69;;;4.14;26.60
64711;BME280;51139;45.626;6.850;2023-02-10T12:00:15;82997.03;;;4.64;25.03
64711;BME280;51139;45.626;6.850;2023-02-10T12:12:09;82998.38;;;4.21;28.70
64711;BME280;51139;45.626;6.850;2023-02-10T12:15:09;83000.75;;;4.25;28.44
64711;BME280;51139;45.626;6.850;2023-02-10T12:18:04;82997.38;;;4.30;29.25
64711;BME280;51139;45.626;6.850;2023-02-10T12:23:55;82990.47;;;4.27;26.75
64711;BME280;51139;45.626;6.850;2023-02-10T12:26:41;83001.63;;;3.72;28.66
64711;BME280;51139;45.626;6.850;2023-02-10T12:29:29;83002.97;;;3.85;27.78
64711;BME280;51139;45.626;6.850;2023-02-10T12:46:12;82991.38;;;4.05;27.46
64711;BME280;51139;45.626;6.850;2023-02-10T12:51:33;82987.63;;;4.00;28.97
64711;BME280;51139;45.626;6.850;2023-02-10T12:54:14;82982.88;;;3.93;30.27
64711;BME280;51139;45.626;6.850;2023-02-10T12:56:55;82985.69;;;3.70;29.53
64711;BME280;51139;45.626;6.850;2023-02-10T12:59:26;82976.59;;;4.07;26.93
64711;BME280;51139;45.626;6.850;2023-02-10T13:02:26;82981.31;;;4.40;27.52
64711;BME280;51139;45.626;6.850;2023-02-10T13:04:51;82982.25;;;4.42;28.28
64711;BME280;51139;45.626;6.850;2023-02-10T13:07:32;82984.94;;;2.91;27.47
64711;BME280;51139;45.626;6.850;2023-02-10T13:10:16;82987.94;;;3.55;26.85
64711;BME280;51139;45.626;6.850;2023-02-10T13:12:46;82984.09;;;3.19;26.99
64711;BME280;51139;45.626;6.850;2023-02-10T13:15:31;82991.19;;;3.67;27.57
64711;BME280;51139;45.626;6.850;2023-02-10T13:17:59;82998.34;;;3.24;26.98
64711;BME280;51139;45.626;6.850;2023-02-10T13:23:16;82995.78;;;3.18;26.90
64711;BME280;51139;45.626;6.850;2023-02-10T13:26:12;82999.06;;;3.25;30.74
64711;BME280;51139;45.626;6.850;2023-02-10T13:34:36;82999.53;;;3.65;29.92
64711;BME280;51139;45.626;6.850;2023-02-10T13:39:50;83002.47;;;3.08;28.77
64711;BME280;51139;45.626;6.850;2023-02-10T13:42:24;83003.16;;;3.14;30.60
64711;BME280;51139;45.626;6.850;2023-02-10T13:45:21;83002.19;;;2.53;29.95
64711;BME280;51139;45.626;6.850;2023-02-10T13:47:54;83013.25;;;2.87;29.96
64711;BME280;51139;45.626;6.850;2023-02-10T13:53:01;83007.81;;;3.33;30.77
64711;BME280;51139;45.626;6.850;2023-02-10T14:00:53;83008.28;;;3.37;32.63
64711;BME280;51139;45.626;6.850;2023-02-10T14:03:31;83014.06;;;3.66;32.79
64711;BME280;51139;45.626;6.850;2023-02-10T14:06:07;83012.19;;;3.61;31.94
64711;BME280;51139;45.626;6.850;2023-02-10T14:08:39;83010.97;;;3.62;32.17
64711;BME280;51139;45.626;6.850;2023-02-10T14:13:33;83014.34;;;3.62;33.34
64711;BME280;51139;45.626;6.850;2023-02-10T14:16:03;83013.16;;;3.58;31.61
64711;BME280;51139;45.626;6.850;2023-02-10T14:18:32;83012.72;;;3.54;31.88
64711;BME280;51139;45.626;6.850;2023-02-10T14:21:15;83012.50;;;3.46;33.35
64711;BME280;51139;45.626;6.850;2023-02-10T14:23:49;83014.56;;;3.59;31.54
64711;BME280;51139;45.626;6.850;2023-02-10T14:26:19;83021.16;;;3.35;30.71
64711;BME280;51139;45.626;6.850;2023-02-10T14:28:50;83016.72;;;3.60;28.92
64711;BME280;51139;45.626;6.850;2023-02-10T14:31:24;83018.16;;;3.61;30.74
64711;BME280;51139;45.626;6.850;2023-02-10T14:33:58;83019.56;;;3.62;30.74
64711;BME280;51139;45.626;6.850;2023-02-10T14:36:25;83023.44;;;3.50;30.04
64711;BME280;51139;45.626;6.850;2023-02-10T14:38:54;83020.03;;;3.97;29.06
64711;BME280;51139;45.626;6.850;2023-02-10T14:41:21;83021.44;;;3.68;29.13
64711;BME280;51139;45.626;6.850;2023-02-10T14:43:48;83022.13;;;3.26;28.71
64711;BME280;51139;45.626;6.850;2023-02-10T14:46:29;83017.34;;;3.36;30.74
64711;BME280;51139;45.626;6.850;2023-02-10T14:49:08;83016.31;;;3.45;28.96
64711;BME280;51139;45.626;6.850;2023-02-10T14:51:39;83021.66;;;3.28;30.09
64711;BME280;51139;45.626;6.850;2023-02-10T14:54:25;83023.25;;;3.42;29.57
64711;BME280;51139;45.626;6.850;2023-02-10T14:57:00;83024.84;;;3.57;28.08
64711;BME280;51139;45.626;6.850;2023-02-10T14:59:31;83024.34;;;3.16;30.36